Flight Track Log - Related Links

Times and Time Zones

All times are in EDT time to prevent confusion due to time zone crossing. See the UAL3740 flight status page for this flight to view local times or setup timezone preferences in your user account.

Time Position Orientation Groundspeed Altitude Reporting Facility
EDT Latitude Longitude Course Direction KTS MPH feet Rate Location/Type
Tue 10:06:45 AM 41.6981 -71.4697 246° West 164 189 2,000  Level Boston Center
Tue 10:08:34 AM 41.6969 -71.5783 269° West 185 213 6,900 2,807 Climbing Boston Center
Tue 10:09:36 AM 41.7472 -71.6331 321° Northwest 176 203 10,000 2,803 Climbing Boston Center
Tue 10:10:36 AM 41.7936 -71.6911 317° Northwest 195 224 12,600 2,797 Climbing Boston Center
Tue 10:11:34 AM 41.8211 -71.7658 296° West 228 262 15,500 2,644 Climbing Boston Center
Tue 10:12:34 AM 41.8486 -71.8436 295° West 233 268 17,800 2,150 Climbing Boston Center
Tue 10:13:34 AM 41.8761 -71.9272 294° West 243 280 19,800 1,623 Climbing Boston Center
Tue 10:14:36 AM 41.8850 -72.0275 277° West 256 295 21,100 1,700 Climbing Boston Center
Tue 10:15:34 AM 41.8914 -72.1333 275° West 275 316 23,200 2,441 Climbing Boston Center
Tue 10:16:34 AM 41.9000 -72.2447 276° West 292 336 25,900 1,934 Climbing Boston Center
Tue 10:17:35 AM 41.9086 -72.3508 276° West 292 336 27,100 1,438 Climbing Boston Center
Tue 10:18:35 AM 41.9169 -72.4569 276° West 292 336 28,800 1,438 Climbing Boston Center
Tue 10:19:36 AM 41.9231 -72.5683 274° West 292 336 30,000 1,140 Climbing Boston Center
Tue 10:20:36 AM 41.9311 -72.6717 276° West 297 342 31,100 1,017 Climbing Boston Center
Tue 10:21:34 AM 41.9392 -72.7861 275° West 307 353 32,000 458 Climbing Boston Center
Tue 10:22:34 AM 41.9472 -72.9119 275° West 321 369 32,000  Level Boston Center
Tue 10:23:37 AM 41.9069 -73.0650 251° West 362 417 32,000  Level Boston Center
Tue 10:24:34 AM 41.8228 -73.1867 227° Southwest 385 443 32,000  Level Boston Center
Tue 10:25:35 AM 41.7428 -73.3108 229° Southwest 418 481 32,000  Level Boston Center
Tue 10:26:36 AM 41.6644 -73.4322 229° Southwest 437 503 32,000  Level Boston Center
Tue 10:29:04 AM 41.4744 -73.7311 230° Southwest 445 512 32,000  Level New York Center
Tue 10:30:05 AM 41.3964 -73.8519 229° Southwest 445 512 32,000  Level New York Center
Tue 10:31:06 AM 41.3139 -73.9753 228° Southwest 444 511 32,000 -252 Level New York Center
Tue 10:32:04 AM 41.2356 -74.0956 229° Southwest 444 511 31,500 -756 Descending New York Center
Tue 10:33:05 AM 41.1617 -74.2022 227° Southwest 444 511 30,500 -1,033 Descending New York Center
Tue 10:34:06 AM 41.0833 -74.3194 228° Southwest 439 505 29,400 -1,160 Descending New York Center
Tue 10:35:04 AM 41.0044 -74.4444 230° Southwest 439 505 28,200 -712 Descending New York Center
Tue 10:36:04 AM 40.9258 -74.5583 228° Southwest 439 505 28,000 -99 Descending New York Center
Tue 10:37:05 AM 40.8733 -74.7008 244° Southwest 434 499 28,000  Level New York Center
Tue 10:38:06 AM 40.8147 -74.8344 240° Southwest 424 488 28,000 -454 Level New York Center
Tue 10:39:04 AM 40.7536 -74.9733 240° Southwest 429 494 27,100 -1,210 Descending New York Center
Tue 10:40:05 AM 40.6906 -75.1008 237° Southwest 429 494 25,600 -1,500 Descending New York Center
Tue 10:41:04 AM 40.6272 -75.2361 238° Southwest 429 494 24,100 -1,513 Descending New York Center
Tue 10:42:04 AM 40.5678 -75.3717 240° Southwest 435 501 22,600 -1,475 Descending New York Center
Tue 10:43:06 AM 40.5042 -75.5067 238° Southwest 435 501 21,100 -1,300 Descending New York Center
Tue 10:44:04 AM 40.4406 -75.6306 236° Southwest 430 495 20,000 -550 Descending New York Center
Tue 10:45:06 AM 40.3811 -75.7597 239° Southwest 425 489 20,000  Level New York Center
Tue 10:46:06 AM 40.3214 -75.8861 238° Southwest 420 483 20,000 -256 Level New York Center
Tue 10:47:03 AM 40.2556 -76.0147 236° Southwest 420 483 19,500 -1,068 Descending New York Center
Tue 10:48:04 AM 40.1908 -76.1511 238° Southwest 413 475 17,900 -1,240 Descending New York Center
Tue 10:49:04 AM 40.1267 -76.2764 236° Southwest 413 475 17,000 -626 Descending New York Center
Tue 10:50:47 AM 40.0333 -76.4833 240° Southwest 401 461 16,200 -736 Descending Potomac TRACON
Tue 10:51:47 AM 39.9667 -76.6167 237° Southwest 401 461 15,000 -595 Descending Potomac TRACON
Tue 10:52:48 AM 39.9167 -76.7333 241° Southwest 403 464 15,000  Level Potomac TRACON
Tue 10:53:42 AM 39.8667 -76.8500 241° Southwest 400 460 15,000 -835 Level Potomac TRACON
Tue 10:54:43 AM 39.8000 -76.9667 233° Southwest 391 450 13,400 -1,587 Descending Potomac TRACON
Tue 10:55:43 AM 39.7500 -77.0833 241° Southwest 374 430 11,800 -1,600 Descending Potomac TRACON
Tue 10:56:43 AM 39.7000 -77.2000 241° Southwest 358 412 10,200 -1,000 Descending Potomac TRACON
Tue 10:57:43 AM 39.6333 -77.2500 210° Southwest 297 342 9,800 -793 Descending Potomac TRACON
Tue 10:58:44 AM 39.5500 -77.2833 197° South 282 325 8,600 -1,140 Descending Potomac TRACON
Tue 10:59:44 AM 39.4833 -77.3333 210° Southwest 286 329 7,500 -789 Descending Potomac TRACON
Tue 11:00:38 AM 39.4167 -77.3667 201° Southwest 281 323 7,100 -737 Descending Potomac TRACON
Tue 11:01:38 AM 39.3333 -77.3667 180° South 289 333 6,100 -1,000 Descending Potomac TRACON
Tue 11:02:38 AM 39.2500 -77.3667 180° South 282 325 5,100 -1,053 Descending Potomac TRACON
Tue 11:03:32 AM 39.1833 -77.3667 180° South 282 325 4,100 -522 Descending Potomac TRACON
Tue 11:04:33 AM 39.1000 -77.3500 171° South 276 318 4,100 -149 Level Potomac TRACON
Tue 11:05:33 AM 39.0333 -77.3500 180° South 276 318 3,800 -526 Descending Potomac TRACON
Tue 11:06:27 AM 38.9667 -77.3500 180° South 269 310 3,100 -421 Descending Potomac TRACON
Tue 11:07:27 AM 38.9000 -77.3500 180° South 251 289 3,000 -450 Descending Potomac TRACON
Tue 11:08:27 AM 38.8333 -77.3667 191° South 215 247 2,200 -446 Descending Potomac TRACON
Tue 11:09:28 AM 38.8000 -77.4000 218° Southwest 177 204 2,100 -50 Descending Potomac TRACON
Tue 11:10:28 AM 38.8333 -77.4333 322° Northwest 164 189 2,100 -300 Level Potomac TRACON
Tue 11:11:28 AM 38.8833 -77.4333 360° North 135 155 1,500 -700 Descending Potomac TRACON
Tue 11:12:28 AM 38.9167 -77.4333 360° North 132 152 700 -800 Descending Potomac TRACON
Tue 11:14:00 AM 38.9333 -77.4500 349° North  Level FlightAware Approximate

Login

Don't have an account? Register now (free) for customized features, flight alerts, and more!